Terminal Aerodrome Forecast
Issued by NWS Huntsville, AL

Home | Current Version | Previous Version | Text Only | Print | Product List | Glossary On
Versions: 1 2 3 4 5 6 7 8 9 10 11 12 13 14 15 16 17 18 19 20 21 22 23 24 25 26 27 28 29 30 31 32 33 34 35
000
FTUS44 KHUN 221959 AAA
TAFMSL
TAF AMD
KMSL 221959Z 2220/2318 14006KT P6SM VCSH OVC007
     FM230100 14006KT 3SM BR VCSH OVC008
     FM231400 15008KT 5SM BR VCSH OVC006=

USA.gov is the U.S. government's official web portal to all federal, state and local government web resources and services.